LiveATC.Net - Listen to live air traffic control over the Internet!

Find LiveATC Audio Streams


Airport/ARTCC Code

Frequency Search
(e.g., 124.400, 128.75)
Site-wide search
 


Browse LiveATC Feeds
LiveATC Coverage Map
Top 50 LiveATC Feeds
Bad Weather Areas

LiveATC FAQ
Offer a LiveATC Feed
Contact LiveATC.net
Press Inquiries

LiveATC on iPhone
LiveATC on Android

Windows Phone
Windows 8/10

LiveATC Mobile
(Mobile browser)

ATC Audio Archives
Interesting Recordings

LiveATC Forums

Home Page
About LiveATC.net
Make a Donation
LiveATC Store

Terms of Use
Privacy Policy

Canadian Air Freqs

AIRMETs/SIGMETs

FAA Airport Status
Nat'l Airspace Status
Arrival Demand Charts


Server Software By:
Icecast.org
Liquidsoap


Current Potentially Bad Weather Airports
(updated every 30 minutes - sorted alphabetically by ICAO code)



This page lists LiveATC.net airport areas that may be interesting to listen to because of challenging flying (weather) conditions. Challenging weather conditions include low ceilings, limited visibility, high or gusty winds, or thunderstorms.

Updated: Mon Jun 26 06:40:01 UTC 2017
Click on airport name to go to that airport area's feeds.

KAVL Gnd/Twr/App Asheville Regional Airport (Asheville, US-NC)
kavlNearest METAR:
KAVL 260623Z AUTO 00000KT 1/4SM R35/1200V2600FT FG VV001 12/11 A3023 RMK AO2 T01220111
KBOK CTAF Brookings Airport (Brookings, US-OR)
kbokNearest METAR:
KBOK 260628Z AUTO 00000KT 6SM BR BKN004 OVC008 13/12 A3002 RMK AO2 LTG DSNT NE CIG 003V007
KCOS Gnd/Twr/App/Dep City of Colorado Springs Municipal Airport (Colorado Springs, US-CO)
kcosNearest METAR:
KCOS 260554Z 12003KT 7SM -DZ OVC006 15/14 A3040 RMK AO2 DZB45 SLP224 P0000 60027 T01500139 10222 20150 51010
KFSD Twr/App/Dep/ZMP Joe Foss Field Airport (Sioux Falls, US-SD)
kfsdNearest METAR:
KFSD 260556Z AUTO 00000KT 10SM RA SCT055 BKN070 OVC085 13/12 A3023 RMK AO2 LTG DSNT SW RAB19 SLP235 P0005 60013 T01330122 10222 20122 402220083 51024
KGAO AWOS South Lafourche Leonard Miller Jr. Airport (Galliano, US-LA)
kgaoNearest METAR:
KGAO 260615Z AUTO 35004KT M1/4SM VCTS FG OVC038 25/23 A3009 RMK AO2 LTG DSNT E THRU SW T02450230
Sun 'n Fun Air Show/Blue Angels Lakeland Linder Regional Airport (Lakeland, US-FL)
klalNearest METAR:
KLAL 260615Z AUTO 21004KT 10SM SCT060 SCT080 OVC100 25/25 A3010 RMK AO2 LTG DSNT S
KLBB Gnd/Twr/App Lubbock Preston Smith International Airport (Lubbock, US-TX)
klbbNearest METAR:
KLBB 260621Z 02034G45KT 7SM -TSRA BKN090CB OVC100 19/17 A3028 RMK AO2 PK WND 02045/0619 WSHFT 0601 LTG DSNT ALQDS PRESRR CONS LTGICCG ALQDS TS ALQDS MOV SE P0002 T01940167
KLFT Gnd/Twr/App Lafayette Regional Airport/Paul Fournet Field (Lafayette, US-LA)
klftNearest METAR:
KLFT 260553Z 00000KT 10SM CLR 24/21 A3013 RMK AO2 LTG DSNT S SLP201 T02390206 10300 20239 403170233 50004
KMSY Gnd/Twr/App Louis Armstrong New Orleans International Airport (New Orleans, US-LA)
kmsyNearest METAR:
KMSY 260553Z 05006KT 10SM SCT055 BKN250 26/22 A3012 RMK AO2 SLP202 OCNL LTGIC DSNT S CB DSNT S 60036 T02560217 10289 20250 403110228 50004 $
KSAW Gnd/Twr/ZMP Sawyer International Airport (Marquette, US-MI)
WX MAP UNAVAILABLENearest METAR:
KSAW 260616Z AUTO 31003KT 10SM OVC005 10/10 A2997 RMK AO2 T01010096
KSPG Ground/Tower Albert Whitted Airport (St. Petersburg, US-FL)
kspgNearest METAR:
KSPG 260553Z AUTO 20006KT 10SM FEW025 OVC100 27/25 A3007 RMK AO2 LTG DSNT SE RAB02E34 SLP181 P0021 60021 T02720250 10306 20272 58002
KVLD Gnd/Twr/App/Dep Valdosta Regional Airport (Valdosta, US-GA)
kvldNearest METAR:
KVLD 260553Z AUTO 00000KT 5SM BR OVC002 23/23 A3009 RMK AO2 SLP196 T02330233 10244 20228 53001
KVNC CTAF Venice Municipal Airport (Venice, US-FL)
kvncNearest METAR:
KVNC 260615Z AUTO 05006KT 10SM OVC050 26/24 A3009 RMK AO2 LTG DSNT NE
Bordeaux Control Bordeaux-Merignac Airport (Bordeaux, France)
WX MAP UNAVAILABLENearest METAR:
LFBD 260600Z AUTO 04003KT 360V090 9999 -RA NSC 20/17 Q1010 TEMPO 4000 TSRA BKN020CB
LFBO Approach/Departure Blagnac Airport (Toulouse, France)
WX MAP UNAVAILABLENearest METAR:
LFBO 260600Z AUTO 13005KT 9999 -RA FEW049/// SCT068/// BKN088/// ///TCU 20/19 Q1012 TEMPO -TSRA SCT070CB
LFBZ Tower Anglet Airport (Biarritz, France)
WX MAP UNAVAILABLENearest METAR:
LFBZ 260600Z AUTO VRB02KT CAVOK 20/19 Q1009 TEMPO VRB15G30KT 2000 TSRA BKN015 BKN060CB
MSLP Gnd/Twr/App/Center Monsenor Oscar Arnulfo Romero International Airport (San Salvador, El Salvador)
WX MAP UNAVAILABLENearest METAR:
MSLP 260550Z 36009KT 330V070 9999 TSRA SCT020 SCT033CB BKN070 23/22 Q1013 A2992 CB ALQDS NOSIG
OPLA/OPLH Gnd/Twr/App Allama Iqbal International Airport (Lahore, Pakistan)
WX MAP UNAVAILABLENearest METAR:
OPLA 260600Z 13011KT 4000 FU SCT100 36/25 Q1001 A29,56 TEMPO 12020G40KT 2000
RKSG Gnd/Twr/App Pyongtaek-Desiderio AAF Airport (A 511) (Pyeongtaek, Korea, Republic of)
WX MAP UNAVAILABLENearest METAR:
RKSG 260602Z 20005KT 10SM -SHRA SCT055 SCT070 28/18 A2969 RMK AO2A LTG DSNT W RAB02 SLP056